createdAt,value
2022-11-28T00:02:24.392Z,6.60
2022-11-28T00:05:12.053Z,6.19
2022-11-28T00:07:59.868Z,6.56
2022-11-28T00:10:47.485Z,6.26
2022-11-28T00:13:35.065Z,6.94
2022-11-28T00:16:22.676Z,7.43
2022-11-28T00:19:10.297Z,7.63
2022-11-28T00:21:57.851Z,7.77
2022-11-28T00:24:45.402Z,7.76
2022-11-28T00:27:32.939Z,8.06
2022-11-28T00:30:20.489Z,7.55
2022-11-28T00:33:08.030Z,7.97
2022-11-28T00:35:55.682Z,8.15
2022-11-28T00:38:45.243Z,8.53
2022-11-28T00:41:32.974Z,8.27
2022-11-28T00:44:20.574Z,8.86
2022-11-28T00:47:08.360Z,9.22
2022-11-28T00:49:57.974Z,9.69
2022-11-28T00:52:45.542Z,9.56
2022-11-28T00:55:33.086Z,9.30
2022-11-28T00:58:20.639Z,9.82
2022-11-28T01:01:08.256Z,9.72
2022-11-28T01:03:55.866Z,9.46
2022-11-28T01:06:43.437Z,9.38
2022-11-28T01:09:30.990Z,9.61
2022-11-28T01:12:18.538Z,8.79
2022-11-28T01:15:06.110Z,7.75
2022-11-28T01:17:53.670Z,7.84
2022-11-28T01:20:41.220Z,7.72
2022-11-28T01:23:28.800Z,6.76
2022-11-28T01:26:16.350Z,6.63
2022-11-28T01:29:03.930Z,6.74
2022-11-28T01:31:51.528Z,6.07
2022-11-28T01:34:39.348Z,6.69
2022-11-28T01:37:27.168Z,6.20
2022-11-28T01:40:14.749Z,5.66
2022-11-28T01:43:02.344Z,5.45
2022-11-28T01:45:49.915Z,5.36
2022-11-28T01:48:37.480Z,5.04
2022-11-28T01:51:25.050Z,4.98
2022-11-28T01:54:12.586Z,4.83
2022-11-28T01:57:00.165Z,4.48
2022-11-28T01:59:47.754Z,4.24
2022-11-28T02:02:35.336Z,4.43
2022-11-28T02:05:22.953Z,4.42
2022-11-28T02:08:10.502Z,4.41
2022-11-28T02:10:58.087Z,4.71
2022-11-28T02:13:45.653Z,4.46
2022-11-28T02:16:33.261Z,4.60
2022-11-28T02:19:20.849Z,4.39
2022-11-28T02:22:08.433Z,4.65
2022-11-28T02:24:55.977Z,4.62
2022-11-28T02:27:43.563Z,4.96
2022-11-28T02:30:31.162Z,4.99
2022-11-28T02:33:18.723Z,5.04
2022-11-28T02:36:06.291Z,5.14
2022-11-28T02:38:53.846Z,5.25
2022-11-28T02:41:41.398Z,5.06
2022-11-28T02:44:28.969Z,5.40
2022-11-28T02:47:16.506Z,5.19
2022-11-28T02:50:04.076Z,5.03
2022-11-28T02:52:51.622Z,5.40
2022-11-28T02:55:39.189Z,5.03
2022-11-28T02:58:28.792Z,5.17
2022-11-28T03:01:16.426Z,5.09
2022-11-28T03:04:04.043Z,4.90
2022-11-28T03:06:51.614Z,4.96
2022-11-28T03:09:39.162Z,4.83
2022-11-28T03:12:26.730Z,5.20
2022-11-28T03:15:14.279Z,4.75
2022-11-28T03:18:01.865Z,4.40
2022-11-28T03:20:49.417Z,4.78
2022-11-28T03:23:36.992Z,5.10
2022-11-28T03:26:24.551Z,4.85
2022-11-28T03:29:14.132Z,4.32
2022-11-28T03:32:01.706Z,4.44
2022-11-28T03:34:49.267Z,4.15
2022-11-28T03:37:36.807Z,4.28
2022-11-28T03:40:24.481Z,4.13
2022-11-28T03:43:12.066Z,4.59
2022-11-28T03:45:59.684Z,4.24
2022-11-28T03:48:47.231Z,4.63
2022-11-28T03:51:34.789Z,4.70
2022-11-28T03:54:22.334Z,4.84
2022-11-28T03:57:09.988Z,4.73
2022-11-28T03:59:57.536Z,4.64
2022-11-28T04:02:45.176Z,4.53
2022-11-28T04:05:32.729Z,4.32
2022-11-28T04:08:20.332Z,4.23
2022-11-28T04:11:07.880Z,4.19
2022-11-28T04:14:15.461Z,3.95
2022-11-28T04:17:03.040Z,4.16
2022-11-28T04:19:50.632Z,3.79
2022-11-28T04:22:38.170Z,3.54
2022-11-28T04:25:25.711Z,3.39
2022-11-28T04:28:13.282Z,3.30
2022-11-28T04:31:00.861Z,3.10
2022-11-28T04:33:48.411Z,3.02
2022-11-28T04:36:36.016Z,2.96
2022-11-28T04:39:23.557Z,3.09
2022-11-28T04:42:11.167Z,3.05
2022-11-28T04:44:58.706Z,3.37
2022-11-28T04:47:46.290Z,2.89
2022-11-28T04:50:33.864Z,3.26
2022-11-28T04:53:21.470Z,3.17
2022-11-28T04:56:09.071Z,3.11
2022-11-28T04:58:58.602Z,3.03
2022-11-28T05:01:46.162Z,3.49
2022-11-28T05:04:33.790Z,3.18
2022-11-28T05:07:21.373Z,3.44
2022-11-28T05:10:09.154Z,3.69
2022-11-28T05:12:56.695Z,3.90
2022-11-28T05:15:44.263Z,3.98
2022-11-28T05:18:31.802Z,4.03
2022-11-28T05:21:19.380Z,3.91
2022-11-28T05:24:06.928Z,3.84
2022-11-28T05:26:54.506Z,3.50
2022-11-28T05:29:42.075Z,3.59
2022-11-28T05:32:29.647Z,3.33
2022-11-28T05:35:17.217Z,2.80
2022-11-28T05:38:07.193Z,2.65
2022-11-28T05:40:58.257Z,2.45
2022-11-28T05:43:45.894Z,2.82
2022-11-28T05:46:33.454Z,2.65
2022-11-28T05:49:21.035Z,2.46
2022-11-28T05:52:08.581Z,2.56
2022-11-28T05:54:56.135Z,2.64
2022-11-28T05:57:43.679Z,2.78
2022-11-28T06:00:31.271Z,2.51
2022-11-28T06:03:18.835Z,2.65
2022-11-28T06:06:06.406Z,2.60
2022-11-28T06:08:53.994Z,2.79
2022-11-28T06:11:41.557Z,2.75
2022-11-28T06:14:29.112Z,2.84
2022-11-28T06:17:16.755Z,2.89
2022-11-28T06:20:04.324Z,3.12
2022-11-28T06:22:51.902Z,2.96
2022-11-28T06:25:39.450Z,2.90
2022-11-28T06:28:27.013Z,3.13
2022-11-28T06:31:14.619Z,3.50
2022-11-28T06:34:02.278Z,3.17
2022-11-28T06:36:49.865Z,3.26
2022-11-28T06:39:37.465Z,3.24
2022-11-28T06:42:25.048Z,3.08
2022-11-28T06:45:12.613Z,3.14
2022-11-28T06:48:00.206Z,3.01
2022-11-28T06:50:47.748Z,3.24
2022-11-28T06:53:35.411Z,3.17
2022-11-28T06:56:24.972Z,3.07
2022-11-28T06:59:12.647Z,3.57
2022-11-28T07:02:05.694Z,3.43
2022-11-28T07:04:54.958Z,3.66
2022-11-28T07:07:53.762Z,3.32
2022-11-28T07:10:42.100Z,3.09
2022-11-28T07:13:29.770Z,2.92
2022-11-28T07:16:17.365Z,3.07
2022-11-28T07:19:04.951Z,2.82
2022-11-28T07:21:52.515Z,2.79
2022-11-28T07:24:40.086Z,2.79
2022-11-28T07:27:27.649Z,2.58
2022-11-28T07:30:15.257Z,2.56
2022-11-28T07:33:02.825Z,2.84
2022-11-28T07:35:50.399Z,2.71
2022-11-28T07:38:37.966Z,2.83
2022-11-28T07:41:27.048Z,3.10
2022-11-28T07:44:14.880Z,3.36
2022-11-28T07:47:02.507Z,3.44
2022-11-28T07:49:50.090Z,3.50
2022-11-28T07:52:37.655Z,3.52
2022-11-28T07:55:25.231Z,3.55
2022-11-28T07:58:12.814Z,3.74
2022-11-28T08:01:00.382Z,4.11
2022-11-28T08:03:47.956Z,4.06
2022-11-28T08:06:35.506Z,3.86
2022-11-28T08:09:23.076Z,3.83
2022-11-28T08:12:10.665Z,3.94
2022-11-28T08:14:58.245Z,3.83
2022-11-28T08:17:45.821Z,3.73
2022-11-28T08:20:33.399Z,3.85
2022-11-28T08:23:20.979Z,3.84
2022-11-28T08:26:08.545Z,3.76
2022-11-28T08:28:56.143Z,3.80
2022-11-28T08:31:43.717Z,3.60
2022-11-28T08:34:31.303Z,3.87
2022-11-28T08:37:18.897Z,3.56
2022-11-28T08:40:06.441Z,3.47
2022-11-28T08:42:54.117Z,3.58
2022-11-28T08:45:43.784Z,3.47
2022-11-28T08:48:31.398Z,3.31
2022-11-28T08:51:18.966Z,3.41
2022-11-28T08:54:06.549Z,3.57
2022-11-28T08:56:54.126Z,3.43
2022-11-28T08:59:41.827Z,3.41
2022-11-28T09:02:29.624Z,3.59
2022-11-28T09:05:17.196Z,3.48
2022-11-28T09:08:08.855Z,3.47
2022-11-28T09:10:57.903Z,3.43
2022-11-28T09:13:25.306Z,3.22
2022-11-28T09:15:53.835Z,3.31
2022-11-28T09:18:21.297Z,3.20
2022-11-28T09:20:49.407Z,3.32
2022-11-28T09:23:16.833Z,3.27
2022-11-28T09:25:44.252Z,3.08
2022-11-28T09:28:11.642Z,2.81
2022-11-28T09:30:39.045Z,2.61
2022-11-28T09:33:06.534Z,2.67
2022-11-28T09:35:33.909Z,2.69
2022-11-28T09:38:01.267Z,2.62
2022-11-28T09:40:28.638Z,2.71
2022-11-28T09:42:56.030Z,2.61
2022-11-28T09:45:23.387Z,2.23
2022-11-28T09:47:50.755Z,2.33
2022-11-28T09:50:18.120Z,2.08
2022-11-28T09:52:45.534Z,2.09
2022-11-28T09:55:12.934Z,1.92
2022-11-28T09:57:40.312Z,1.96
2022-11-28T10:00:07.704Z,2.19
2022-11-28T10:02:35.058Z,2.15
2022-11-28T10:05:02.533Z,1.79
2022-11-28T10:07:30.009Z,1.99
2022-11-28T10:09:57.709Z,1.78
2022-11-28T10:12:25.081Z,1.94
2022-11-28T10:14:52.453Z,1.87
2022-11-28T10:17:19.922Z,2.07
2022-11-28T10:19:54.218Z,1.89
2022-11-28T10:22:22.143Z,1.88
2022-11-28T10:24:49.525Z,1.79
2022-11-28T10:27:16.897Z,1.94
2022-11-28T10:29:44.719Z,1.80
2022-11-28T10:32:12.437Z,1.80
2022-11-28T10:34:39.820Z,1.81
2022-11-28T10:37:07.194Z,1.61
2022-11-28T10:39:34.614Z,1.64
2022-11-28T10:42:02.003Z,1.72
2022-11-28T10:44:29.580Z,1.71
2022-11-28T10:46:56.936Z,1.62
2022-11-28T10:49:24.342Z,1.65
2022-11-28T10:51:51.731Z,1.69
2022-11-28T10:54:19.109Z,1.62
2022-11-28T10:56:46.481Z,1.56
2022-11-28T10:59:13.851Z,1.60
2022-11-28T11:01:44.599Z,1.46
2022-11-28T11:04:14.733Z,1.52
2022-11-28T11:09:15.257Z,1.74
2022-11-28T11:11:42.643Z,1.84
2022-11-28T11:14:10.003Z,2.02
2022-11-28T11:16:37.476Z,1.79
2022-11-28T11:19:04.892Z,1.93
2022-11-28T11:21:32.273Z,1.86
2022-11-28T11:23:59.650Z,1.86
2022-11-28T11:26:27.020Z,1.90
2022-11-28T11:28:54.396Z,1.83
2022-11-28T11:31:23.274Z,2.00
2022-11-28T11:33:50.782Z,2.14
2022-11-28T11:36:18.154Z,2.08
2022-11-28T11:38:45.549Z,1.87
2022-11-28T11:41:12.918Z,1.99
2022-11-28T11:43:40.304Z,2.12
2022-11-28T11:46:07.768Z,1.86
2022-11-28T11:48:35.202Z,2.14
2022-11-28T11:51:02.606Z,2.06
2022-11-28T11:53:29.979Z,2.07
2022-11-28T11:55:57.377Z,1.92
2022-11-28T11:58:24.769Z,2.03
2022-11-28T12:00:52.170Z,1.90
2022-11-28T12:03:19.652Z,2.16
2022-11-28T12:06:12.664Z,1.87
2022-11-28T12:08:34.410Z,1.93
2022-11-28T12:11:01.786Z,1.99
2022-11-28T12:13:29.335Z,1.81
2022-11-28T12:15:56.771Z,1.96
2022-11-28T12:18:26.224Z,1.99
2022-11-28T12:20:53.598Z,1.89
2022-11-28T12:23:20.983Z,1.93
2022-11-28T12:25:48.363Z,2.27
2022-11-28T12:28:15.737Z,2.23
2022-11-28T12:30:44.811Z,2.02
2022-11-28T12:33:12.459Z,2.02
2022-11-28T12:35:39.845Z,2.39
2022-11-28T12:38:11.715Z,2.29
2022-11-28T12:40:39.459Z,2.36
2022-11-28T12:43:06.814Z,2.35
2022-11-28T12:45:34.230Z,2.34
2022-11-28T12:48:01.627Z,2.45
2022-11-28T12:50:28.998Z,2.46
2022-11-28T12:52:56.378Z,2.52
2022-11-28T12:55:23.752Z,2.70
2022-11-28T12:57:51.159Z,2.58
2022-11-28T13:00:18.573Z,2.77
2022-11-28T13:02:46.036Z,2.69
2022-11-28T13:05:13.465Z,2.21
2022-11-28T13:07:40.973Z,2.26
2022-11-28T13:10:08.410Z,2.15
2022-11-28T13:12:35.786Z,2.45
2022-11-28T13:15:03.191Z,2.37
2022-11-28T13:17:30.587Z,2.41
2022-11-28T13:19:57.954Z,2.17
2022-11-28T13:22:25.333Z,2.33
2022-11-28T13:24:52.991Z,2.40
2022-11-28T13:27:20.591Z,2.39
2022-11-28T13:29:47.995Z,2.40
2022-11-28T13:32:15.399Z,2.48
2022-11-28T13:34:42.755Z,2.36
2022-11-28T13:39:57.479Z,2.71
2022-11-28T13:45:12.192Z,2.48
2022-11-28T13:47:39.576Z,2.66
2022-11-28T13:50:07.025Z,2.74
2022-11-28T13:52:34.461Z,2.96
2022-11-28T13:55:01.822Z,2.87
2022-11-28T13:57:29.215Z,2.90
2022-11-28T13:59:56.599Z,2.88
2022-11-28T14:02:23.983Z,2.64
2022-11-28T14:04:51.363Z,2.85
2022-11-28T14:07:18.766Z,2.76
2022-11-28T14:09:46.239Z,2.79
2022-11-28T14:12:13.639Z,2.62
2022-11-28T14:14:41.086Z,2.59
2022-11-28T14:17:09.770Z,2.50
2022-11-28T14:19:37.283Z,2.60
2022-11-28T14:22:04.654Z,2.62
2022-11-28T14:24:32.066Z,2.23
2022-11-28T14:26:59.449Z,2.24
2022-11-28T14:29:26.822Z,2.35
2022-11-28T14:32:21.652Z,2.59
2022-11-28T14:34:41.768Z,2.53
2022-11-28T14:37:09.292Z,2.53
2022-11-28T14:39:36.667Z,2.61
2022-11-28T14:42:04.133Z,2.47
2022-11-28T14:44:31.515Z,2.33
2022-11-28T14:46:58.926Z,2.29
2022-11-28T14:49:26.369Z,2.49
2022-11-28T14:52:09.910Z,2.33
2022-11-28T14:54:41.124Z,2.56
2022-11-28T14:57:08.503Z,2.36
2022-11-28T14:59:35.892Z,2.35
2022-11-28T15:02:03.333Z,2.38
2022-11-28T15:04:30.810Z,2.62
2022-11-28T15:06:58.200Z,2.35
2022-11-28T15:09:25.562Z,2.39
2022-11-28T15:11:52.978Z,2.43
2022-11-28T15:14:20.361Z,2.25
2022-11-28T15:16:50.533Z,2.23
2022-11-28T15:19:18.238Z,2.48
2022-11-28T15:21:45.609Z,2.50
2022-11-28T15:24:12.995Z,2.32
2022-11-28T15:26:40.353Z,2.36
2022-11-28T15:29:07.753Z,2.51
2022-11-28T15:31:35.391Z,2.56
2022-11-28T15:34:02.846Z,2.62
2022-11-28T15:36:30.238Z,2.26
2022-11-28T15:38:57.615Z,2.54
2022-11-28T15:41:24.982Z,2.83
2022-11-28T15:43:52.344Z,2.86
2022-11-28T15:46:19.777Z,3.28
2022-11-28T15:48:47.226Z,3.73
2022-11-28T15:51:16.623Z,4.13
2022-11-28T15:53:43.990Z,4.44
2022-11-28T15:56:11.402Z,4.62
2022-11-28T15:58:38.770Z,5.38
2022-11-28T16:01:06.247Z,5.46
2022-11-28T16:03:33.661Z,6.36
2022-11-28T16:06:01.005Z,7.10
2022-11-28T16:08:28.392Z,7.26
2022-11-28T16:10:55.767Z,8.25
2022-11-28T16:13:23.125Z,8.11
2022-11-28T16:15:50.647Z,8.48
2022-11-28T16:18:18.051Z,8.23
2022-11-28T16:20:45.426Z,7.54
2022-11-28T16:23:12.863Z,7.52
2022-11-28T16:25:40.253Z,7.39
2022-11-28T16:28:07.635Z,6.72
2022-11-28T16:30:35.014Z,6.82
2022-11-28T16:33:02.366Z,6.65
2022-11-28T16:35:29.734Z,5.98
2022-11-28T16:37:57.098Z,5.37
2022-11-28T16:40:24.452Z,4.87
2022-11-28T16:42:51.839Z,5.18
2022-11-28T16:45:19.197Z,5.61
2022-11-28T16:47:46.586Z,5.95
2022-11-28T16:50:15.899Z,5.20
2022-11-28T16:52:44.267Z,4.48
2022-11-28T16:55:11.638Z,4.24
2022-11-28T16:57:39.011Z,3.41
2022-11-28T17:00:06.363Z,3.67
2022-11-28T17:02:33.796Z,3.89
2022-11-28T17:05:01.201Z,3.81
2022-11-28T17:07:28.657Z,3.84
2022-11-28T17:09:56.051Z,3.64
2022-11-28T17:12:23.410Z,3.65
2022-11-28T17:14:50.784Z,3.41
2022-11-28T17:17:18.162Z,3.71
2022-11-28T17:19:45.861Z,3.30
2022-11-28T17:22:13.453Z,3.42
2022-11-28T17:24:40.835Z,4.62
2022-11-28T17:27:08.183Z,3.56
2022-11-28T17:29:35.551Z,4.35
2022-11-28T17:32:02.906Z,3.65
2022-11-28T17:34:30.338Z,3.49
2022-11-28T17:36:57.731Z,3.62
2022-11-28T17:39:25.117Z,3.58
2022-11-28T17:41:52.491Z,3.42
2022-11-28T17:44:19.957Z,4.39
2022-11-28T17:46:47.303Z,3.77
2022-11-28T17:49:14.654Z,3.95
2022-11-28T17:51:42.055Z,3.77
2022-11-28T17:54:09.441Z,3.56
2022-11-28T17:56:36.830Z,3.72
2022-11-28T17:59:04.177Z,3.88
2022-11-28T18:01:31.587Z,4.19
2022-11-28T18:03:59.008Z,4.00
2022-11-28T18:06:26.367Z,4.55
2022-11-28T18:08:53.763Z,4.87
2022-11-28T18:11:21.130Z,5.05
2022-11-28T18:13:48.490Z,5.40
2022-11-28T18:16:15.973Z,5.20
2022-11-28T18:18:43.399Z,5.16
2022-11-28T18:21:10.897Z,5.11
2022-11-28T18:23:38.253Z,5.30
2022-11-28T18:26:05.634Z,5.27
2022-11-28T18:28:33.028Z,5.36
2022-11-28T18:31:00.402Z,5.84
2022-11-28T18:33:27.779Z,5.66
2022-11-28T18:35:55.158Z,5.95
2022-11-28T18:38:22.538Z,6.22
2022-11-28T18:40:49.946Z,6.58
2022-11-28T18:43:17.330Z,6.65
2022-11-28T18:45:44.853Z,6.64
2022-11-28T18:48:12.239Z,6.83
2022-11-28T18:50:39.661Z,6.54
2022-11-28T18:53:07.039Z,6.70
2022-11-28T18:55:34.418Z,6.40
2022-11-28T18:58:01.802Z,6.75
2022-11-28T19:00:29.168Z,7.04
2022-11-28T19:02:58.534Z,7.64
2022-11-28T19:05:25.947Z,8.15
2022-11-28T19:07:53.363Z,8.76
2022-11-28T19:10:20.805Z,8.77
2022-11-28T19:12:48.206Z,8.05
2022-11-28T19:15:15.555Z,7.84
2022-11-28T19:17:42.943Z,7.83
2022-11-28T19:20:10.345Z,7.84
2022-11-28T19:22:37.856Z,7.84
2022-11-28T19:25:05.221Z,7.73
2022-11-28T19:27:32.780Z,8.05
2022-11-28T19:30:00.149Z,7.29
2022-11-28T19:32:27.514Z,7.20
2022-11-28T19:34:54.886Z,7.15
2022-11-28T19:37:22.255Z,7.70
2022-11-28T19:39:49.623Z,7.43
2022-11-28T19:42:18.184Z,7.95
2022-11-28T19:44:45.551Z,7.51
2022-11-28T19:47:12.957Z,7.77
2022-11-28T19:49:40.325Z,7.33
2022-11-28T19:52:07.727Z,7.62
2022-11-28T19:54:35.160Z,8.02
2022-11-28T19:57:02.572Z,7.20
2022-11-28T19:59:31.954Z,6.58
2022-11-28T20:01:59.334Z,6.48
2022-11-28T20:04:26.734Z,6.96
2022-11-28T20:06:54.100Z,6.37
2022-11-28T20:09:21.510Z,6.84
2022-11-28T20:11:48.882Z,11.72
2022-11-28T20:14:16.271Z,9.03
2022-11-28T20:16:43.733Z,8.52
2022-11-28T20:19:11.128Z,8.19
2022-11-28T20:21:38.474Z,8.16
2022-11-28T20:24:05.852Z,8.24
2022-11-28T20:26:33.270Z,8.51
2022-11-28T20:29:00.661Z,8.33
2022-11-28T20:31:28.096Z,8.31
2022-11-28T20:33:55.498Z,7.85
2022-11-28T20:36:22.932Z,7.37
2022-11-28T20:38:50.323Z,7.49
2022-11-28T20:41:17.810Z,7.43
2022-11-28T20:43:47.201Z,7.11
2022-11-28T20:46:14.620Z,6.81
2022-11-28T20:48:42.027Z,7.83
2022-11-28T20:51:09.408Z,12.25
2022-11-28T20:53:36.763Z,6.92
2022-11-28T20:56:04.113Z,6.64
2022-11-28T20:58:31.505Z,7.09
2022-11-28T21:00:58.955Z,5.97
2022-11-28T21:03:26.342Z,5.99
2022-11-28T21:05:59.420Z,5.56
2022-11-28T21:08:28.350Z,5.71
2022-11-28T21:10:55.751Z,5.55
2022-11-28T21:13:23.108Z,5.93
2022-11-28T21:15:50.508Z,6.30
2022-11-28T21:18:17.860Z,6.28
2022-11-28T21:20:45.205Z,6.78
2022-11-28T21:23:12.578Z,6.76
2022-11-28T21:25:39.956Z,7.12
2022-11-28T21:28:07.322Z,7.38
2022-11-28T21:30:34.671Z,7.56
2022-11-28T21:33:02.049Z,7.28
2022-11-28T21:35:29.409Z,7.72
2022-11-28T21:37:56.778Z,7.12
2022-11-28T21:40:24.147Z,6.56
2022-11-28T21:42:51.521Z,6.86
2022-11-28T21:45:18.898Z,6.60
2022-11-28T21:47:46.246Z,5.90
2022-11-28T21:50:13.637Z,5.52
2022-11-28T21:52:41.042Z,5.51
2022-11-28T21:55:08.429Z,5.43
2022-11-28T21:57:54.726Z,4.75
2022-11-28T22:00:56.838Z,4.18
2022-11-28T22:03:44.384Z,3.31
2022-11-28T22:06:31.943Z,3.32
2022-11-28T22:09:19.514Z,3.00
2022-11-28T22:12:07.188Z,2.91
2022-11-28T22:14:54.757Z,2.86
2022-11-28T22:17:42.350Z,2.67
2022-11-28T22:20:29.914Z,2.55
2022-11-28T22:23:17.523Z,2.60
2022-11-28T22:26:05.141Z,2.72
2022-11-28T22:28:53.939Z,2.12
2022-11-28T22:31:41.844Z,2.20
2022-11-28T22:34:29.441Z,2.11
2022-11-28T22:37:17.029Z,2.08
2022-11-28T22:40:04.585Z,2.17
2022-11-28T22:42:52.155Z,2.29
2022-11-28T22:45:39.754Z,2.21
2022-11-28T22:48:27.398Z,2.66
2022-11-28T22:51:14.991Z,2.40
2022-11-28T22:54:02.639Z,2.73
2022-11-28T22:56:50.179Z,2.57
2022-11-28T22:59:37.865Z,2.54
2022-11-28T23:02:25.484Z,2.82
2022-11-28T23:05:13.221Z,2.82
2022-11-28T23:08:00.805Z,2.94
2022-11-28T23:10:48.430Z,2.89
2022-11-28T23:13:35.984Z,2.87
2022-11-28T23:16:23.608Z,2.82
2022-11-28T23:19:11.174Z,3.04
2022-11-28T23:21:58.749Z,2.70
2022-11-28T23:24:46.522Z,2.66
2022-11-28T23:27:34.154Z,2.54
2022-11-28T23:30:21.794Z,2.40
2022-11-28T23:33:09.359Z,2.43
2022-11-28T23:35:56.935Z,2.06
2022-11-28T23:38:44.507Z,2.10
2022-11-28T23:41:32.064Z,2.03
2022-11-28T23:44:19.608Z,1.96
2022-11-28T23:47:07.195Z,1.87
2022-11-28T23:49:54.766Z,1.83
2022-11-28T23:52:42.347Z,1.74
2022-11-28T23:55:29.926Z,1.96
2022-11-28T23:58:17.482Z,2.43
